createdAt,value
2019-04-20T00:01:40.930Z,4.33
2019-04-20T00:04:18.922Z,4.17
2019-04-20T00:06:47.796Z,4.17
2019-04-20T00:09:20.611Z,3.20
2019-04-20T00:29:49.772Z,3.80
2019-04-20T00:32:18.603Z,3.77
2019-04-20T00:34:41.638Z,3.47
2019-04-20T00:37:10.904Z,3.97
2019-04-20T00:39:41.081Z,4.00
2019-04-20T00:42:14.536Z,4.07
2019-04-20T00:44:45.821Z,4.07
2019-04-20T00:47:25.372Z,3.80
2019-04-20T00:50:05.566Z,3.87
2019-04-20T00:52:44.832Z,3.80
2019-04-20T00:54:56.492Z,4.20
2019-04-20T00:57:36.853Z,4.10
2019-04-20T01:00:19.217Z,3.87
2019-04-20T01:02:44.411Z,3.73
2019-04-20T01:07:56.339Z,3.90
2019-04-20T01:10:28.389Z,3.97
2019-04-20T01:13:06.750Z,4.20
2019-04-20T01:15:46.447Z,4.25
2019-04-20T01:18:04.121Z,4.60
2019-04-20T01:20:33.843Z,4.40
2019-04-20T01:23:10.137Z,4.80
2019-04-20T01:25:40.235Z,4.40
2019-04-20T01:28:25.050Z,4.60
2019-04-20T01:30:45.450Z,4.20
2019-04-20T01:33:25.882Z,4.53
2019-04-20T01:35:56.916Z,4.90
2019-04-20T01:38:32.948Z,4.67
2019-04-20T01:40:48.445Z,4.55
2019-04-20T01:43:18.642Z,5.00
2019-04-20T01:45:58.412Z,5.10
2019-04-20T01:48:28.784Z,5.10
2019-04-20T01:51:06.268Z,4.83
2019-04-20T01:53:55.506Z,4.33
2019-04-20T01:56:27.635Z,4.37
2019-04-20T01:59:21.432Z,4.60
2019-04-20T02:02:08.057Z,4.33
2019-04-20T02:04:40.977Z,4.60
2019-04-20T02:07:10.787Z,5.47
2019-04-20T02:09:49.945Z,5.10
2019-04-20T02:12:23.635Z,5.05
2019-04-20T02:14:56.086Z,5.60
2019-04-20T02:17:33.161Z,5.05
2019-04-20T02:20:17.397Z,5.12
2019-04-20T02:22:47.676Z,5.55
2019-04-20T02:24:59.975Z,4.80
2019-04-20T02:27:43.275Z,5.65
2019-04-20T02:30:40.675Z,5.15
2019-04-20T02:33:27.463Z,5.30
2019-04-20T02:36:20.956Z,5.35
2019-04-20T02:44:24.086Z,4.95
2019-04-20T02:51:59.740Z,5.35
2019-04-20T02:54:28.469Z,5.12
2019-04-20T03:01:50.166Z,5.55
2019-04-20T03:04:06.945Z,5.42
2019-04-20T03:06:53.487Z,5.45
2019-04-20T03:09:33.094Z,5.30
2019-04-20T03:14:29.286Z,5.40
2019-04-20T03:17:09.923Z,5.70
2019-04-20T03:19:33.986Z,5.70
2019-04-20T03:24:44.334Z,5.53
2019-04-20T03:35:22.385Z,6.87
2019-04-20T03:38:00.064Z,5.60
2019-04-20T04:12:46.772Z,5.07
2019-04-20T04:15:16.824Z,5.33
2019-04-20T04:17:48.195Z,5.70
2019-04-20T04:20:21.380Z,5.60
2019-04-20T04:23:11.085Z,5.80
2019-04-20T04:25:39.841Z,6.17
2019-04-20T04:28:14.227Z,6.72
2019-04-20T04:30:48.869Z,6.40
2019-04-20T04:35:51.356Z,6.45
2019-04-20T04:38:35.931Z,6.80
2019-04-20T04:41:09.684Z,6.37
2019-04-20T04:43:35.960Z,5.73
2019-04-20T04:45:48.925Z,6.50
2019-04-20T04:48:25.998Z,5.63
2019-04-20T04:50:57.847Z,6.80
2019-04-20T04:53:30.357Z,6.40
2019-04-20T04:56:00.454Z,7.30
2019-04-20T04:58:27.782Z,6.70
2019-04-20T05:01:05.676Z,6.55
2019-04-20T05:03:44.938Z,6.80
2019-04-20T05:06:22.192Z,6.55
2019-04-20T05:08:45.355Z,6.83
2019-04-20T05:11:11.167Z,7.13
2019-04-20T05:13:48.541Z,6.47
2019-04-20T05:16:34.768Z,6.90
2019-04-20T05:19:10.412Z,7.30
2019-04-20T05:22:16.320Z,7.03
2019-04-20T05:24:53.803Z,6.95
2019-04-20T05:27:34.821Z,7.03
2019-04-20T05:29:50.779Z,6.28
2019-04-20T05:32:32.816Z,6.72
2019-04-20T05:35:14.639Z,7.33
2019-04-20T05:37:49.912Z,7.55
2019-04-20T05:45:22.071Z,6.03
2019-04-20T05:47:53.660Z,5.93
2019-04-20T05:50:31.567Z,5.87
2019-04-20T05:53:09.964Z,5.83
2019-04-20T05:55:41.635Z,6.00
2019-04-20T05:58:08.926Z,6.57
2019-04-20T06:00:48.018Z,5.87
2019-04-20T06:03:11.904Z,5.27
2019-04-20T06:05:52.530Z,5.83
2019-04-20T06:08:28.823Z,6.23
2019-04-20T06:10:50.878Z,5.60
2019-04-20T06:27:00.885Z,5.80
2019-04-20T06:29:26.561Z,5.57
2019-04-20T06:32:07.122Z,5.40
2019-04-20T06:37:00.496Z,5.00
2019-04-20T06:42:23.421Z,5.03
2019-04-20T07:23:41.918Z,4.73
2019-04-20T07:26:16.835Z,4.70
2019-04-20T07:28:48.472Z,4.60
2019-04-20T10:57:21.983Z,4.43
2019-04-20T11:12:24.307Z,5.13
2019-04-20T11:14:54.517Z,5.80
2019-04-20T11:17:28.536Z,6.23
2019-04-20T11:19:59.170Z,6.20
2019-04-20T11:22:32.622Z,5.70
2019-04-20T11:25:04.168Z,5.43
2019-04-20T11:27:34.767Z,5.07
2019-04-20T11:30:11.930Z,5.40
2019-04-20T11:32:42.185Z,4.90
2019-04-20T11:35:23.236Z,4.87
2019-04-20T11:37:45.077Z,4.40
2019-04-20T11:40:17.249Z,4.80
2019-04-20T12:21:03.026Z,5.65
2019-04-20T12:23:36.205Z,4.40
2019-04-20T12:26:06.818Z,4.70
2019-04-20T12:28:43.270Z,5.03
2019-04-20T12:31:20.473Z,4.60
2019-04-20T12:33:48.314Z,5.30
2019-04-20T12:36:18.508Z,5.60
2019-04-20T12:38:49.063Z,5.67
2019-04-20T12:41:31.153Z,5.28
2019-04-20T12:43:52.021Z,5.85
2019-04-20T12:46:23.451Z,5.53
2019-04-20T12:48:55.691Z,5.60
2019-04-20T12:51:33.919Z,6.30
2019-04-20T12:54:00.453Z,6.53
2019-04-20T12:56:30.681Z,6.10
2019-04-20T12:59:01.196Z,5.83
2019-04-20T13:01:35.324Z,5.60
2019-04-20T13:04:07.425Z,5.92
2019-04-20T13:06:38.668Z,5.73
2019-04-20T13:09:12.758Z,5.78
2019-04-20T13:12:13.890Z,5.53
2019-04-20T13:15:10.688Z,6.20
2019-04-20T13:17:44.402Z,5.78
2019-04-20T13:20:16.136Z,5.53
2019-04-20T13:22:48.788Z,5.80
2019-04-20T13:25:21.057Z,5.78
2019-04-20T13:28:15.109Z,5.30
2019-04-20T13:30:45.950Z,5.28
2019-04-20T13:33:18.097Z,5.00
2019-04-20T13:35:50.160Z,5.30
2019-04-20T13:38:23.942Z,5.10
2019-04-20T13:40:57.814Z,5.30
2019-04-20T13:43:32.671Z,5.40
2019-04-20T13:46:02.936Z,5.30
2019-04-20T13:48:36.846Z,5.53
2019-04-20T13:51:07.955Z,5.50
2019-04-20T13:53:39.054Z,5.10
2019-04-20T13:56:10.058Z,5.40
2019-04-20T13:59:01.531Z,5.23
2019-04-20T14:01:46.646Z,5.75
2019-04-20T14:04:26.580Z,5.30
2019-04-20T14:06:59.487Z,5.15
2019-04-20T14:09:33.242Z,5.20
2019-04-20T14:12:13.983Z,4.92
2019-04-20T14:14:35.075Z,5.08
2019-04-20T14:17:07.640Z,4.90
2019-04-20T14:19:39.055Z,5.05
2019-04-20T14:22:13.235Z,5.10
2019-04-20T14:24:44.756Z,5.10
2019-04-20T14:27:16.996Z,4.83
2019-04-20T14:29:46.573Z,4.67
2019-04-20T14:32:16.813Z,4.60
2019-04-20T14:34:49.080Z,5.08
2019-04-20T14:37:20.695Z,4.83
2019-04-20T14:39:52.233Z,4.60
2019-04-20T14:42:32.417Z,4.72
2019-04-20T14:44:55.519Z,4.80
2019-04-20T14:47:27.894Z,4.70
2019-04-20T14:50:02.682Z,4.75
2019-04-20T14:52:35.430Z,4.55
2019-04-20T14:55:07.738Z,4.50
2019-04-20T14:57:39.358Z,4.33
2019-04-20T15:00:37.672Z,4.90
2019-04-20T15:03:28.335Z,4.22
2019-04-20T15:06:03.319Z,4.22
2019-04-20T15:08:34.583Z,4.33
2019-04-20T15:11:05.404Z,3.90
2019-04-20T15:13:38.645Z,4.40
2019-04-20T15:16:08.918Z,4.30
2019-04-20T15:19:11.667Z,4.20
2019-04-20T15:21:47.519Z,4.03
2019-04-20T15:24:19.757Z,4.08
2019-04-20T15:26:54.255Z,4.35
2019-04-20T15:29:24.270Z,4.00
2019-04-20T15:31:56.524Z,4.72
2019-04-20T15:34:30.993Z,4.00
2019-04-20T15:37:02.483Z,4.30
2019-04-20T15:39:38.942Z,4.53
2019-04-20T15:42:11.577Z,4.35
2019-04-20T15:44:47.504Z,3.70
2019-04-20T15:47:17.494Z,3.70
2019-04-20T15:49:49.800Z,3.80
2019-04-20T15:52:26.209Z,3.87
2019-04-20T15:55:22.596Z,3.92
2019-04-20T15:57:44.823Z,3.87
2019-04-20T16:00:16.226Z,3.75
2019-04-20T16:03:05.387Z,3.90
2019-04-20T16:05:51.400Z,3.80
2019-04-20T16:08:41.929Z,3.75
2019-04-20T16:11:17.330Z,3.90
2019-04-20T16:17:54.971Z,3.67
2019-04-20T16:20:28.495Z,3.85
2019-04-20T16:23:00.662Z,4.17
2019-04-20T16:25:41.123Z,4.27
2019-04-20T16:28:14.329Z,3.80
2019-04-20T16:30:45.590Z,3.77
2019-04-20T16:33:16.480Z,3.87
2019-04-20T16:35:52.419Z,3.58
2019-04-20T16:38:55.502Z,3.43
2019-04-20T16:41:26.441Z,3.80
2019-04-20T16:44:00.391Z,3.83
2019-04-20T16:46:32.086Z,4.50
2019-04-20T16:49:03.675Z,3.77
2019-04-20T16:52:44.254Z,3.60
2019-04-20T16:54:53.520Z,3.72
2019-04-20T16:57:27.735Z,3.67
2019-04-20T17:00:03.701Z,3.67
2019-04-20T17:02:36.325Z,3.90
2019-04-20T17:05:09.231Z,3.40
2019-04-20T17:07:42.824Z,3.45
2019-04-20T17:10:16.036Z,3.50
2019-04-20T17:12:51.495Z,3.42
2019-04-20T17:15:23.472Z,3.75
2019-04-20T17:17:53.902Z,3.62
2019-04-20T17:20:25.759Z,3.70
2019-04-20T17:22:58.352Z,3.42
2019-04-20T17:25:28.444Z,3.13
2019-04-20T17:35:28.237Z,3.25
2019-04-20T17:41:01.532Z,4.28
2019-04-20T17:43:25.112Z,3.40
2019-04-20T17:45:57.881Z,3.03
2019-04-20T17:48:37.141Z,3.10
2019-04-20T17:51:31.694Z,3.07
2019-04-20T17:54:06.695Z,3.17
2019-04-20T17:56:44.526Z,2.70
2019-04-20T17:59:16.699Z,2.93
2019-04-20T18:02:32.842Z,3.10
2019-04-20T18:05:20.082Z,2.93
2019-04-20T18:07:44.898Z,2.90
2019-04-20T18:10:17.508Z,3.00
2019-04-20T18:12:40.941Z,2.85
2019-04-20T18:15:22.943Z,3.00
2019-04-20T18:18:24.515Z,3.42
2019-04-20T18:20:50.551Z,3.45
2019-04-20T18:23:27.436Z,3.47
2019-04-20T18:26:10.507Z,3.17
2019-04-20T18:28:47.139Z,3.30
2019-04-20T18:31:13.775Z,3.30
2019-04-20T18:33:48.503Z,3.65
2019-04-20T18:36:28.248Z,3.80
2019-04-20T18:38:57.426Z,3.58
2019-04-20T18:41:45.535Z,3.70
2019-04-20T18:44:12.868Z,3.45
2019-04-20T18:47:33.247Z,3.52
2019-04-20T18:50:01.128Z,3.58
2019-04-20T18:52:23.970Z,3.40
2019-04-20T18:54:55.586Z,3.37
2019-04-20T19:00:34.762Z,3.40
2019-04-20T19:03:15.978Z,3.50
2019-04-20T19:05:39.901Z,3.58
2019-04-20T19:08:13.706Z,3.90
2019-04-20T19:10:43.796Z,4.20
2019-04-20T19:13:28.698Z,3.70
2019-04-20T19:16:17.588Z,4.42
2019-04-20T19:19:06.318Z,4.17
2019-04-20T19:21:29.277Z,4.35
2019-04-20T19:24:07.590Z,4.90
2019-04-20T19:26:34.262Z,3.80
2019-04-20T19:29:33.329Z,3.53
2019-04-20T19:39:15.163Z,4.17
2019-04-20T19:41:44.316Z,4.30
2019-04-20T19:44:15.175Z,5.90
2019-04-20T19:46:56.667Z,5.22
2019-04-20T19:49:19.580Z,4.87
2019-04-20T19:52:02.876Z,4.70
2019-04-20T19:54:33.030Z,4.15
2019-04-20T19:56:58.236Z,4.20
2019-04-20T19:59:25.127Z,4.22
2019-04-20T20:01:45.638Z,4.58
2019-04-20T20:04:48.212Z,4.60
2019-04-20T20:07:27.770Z,4.35
2019-04-20T20:10:14.887Z,3.90
2019-04-20T20:12:49.464Z,4.03
2019-04-20T20:15:29.596Z,4.23
2019-04-20T20:18:19.450Z,3.80
2019-04-20T20:20:52.345Z,3.93
2019-04-20T20:23:47.819Z,4.00
2019-04-20T20:26:44.900Z,3.75
2019-04-20T20:29:24.936Z,4.33
2019-04-20T20:36:05.539Z,5.10
2019-04-20T20:38:38.919Z,4.30
2019-04-20T20:41:17.366Z,4.90
2019-04-20T20:43:49.607Z,4.83
2019-04-20T20:46:19.809Z,4.97
2019-04-20T20:49:05.754Z,4.92
2019-04-20T20:51:41.077Z,6.10
2019-04-20T20:53:56.503Z,5.70
2019-04-20T20:56:27.362Z,5.17
2019-04-20T20:59:01.816Z,5.23
2019-04-20T21:01:25.920Z,5.07
2019-04-20T21:03:54.681Z,4.47
2019-04-20T21:06:26.736Z,5.00
2019-04-20T21:08:59.981Z,4.73
2019-04-20T21:11:31.434Z,5.22
2019-04-20T21:14:04.456Z,5.00
2019-04-20T21:16:40.311Z,5.85
2019-04-20T21:19:27.861Z,4.95
2019-04-20T21:21:59.857Z,5.05
2019-04-20T21:24:35.952Z,5.08
2019-04-20T21:27:07.872Z,5.58
2019-04-20T21:29:50.540Z,5.30
2019-04-20T21:32:20.189Z,4.70
2019-04-20T21:35:07.297Z,5.12
2019-04-20T21:37:34.883Z,5.70
2019-04-20T21:40:17.699Z,4.90
2019-04-20T21:42:49.503Z,5.07
2019-04-20T21:45:20.137Z,5.30
2019-04-20T21:47:44.726Z,5.53
2019-04-20T21:50:32.982Z,5.60
2019-04-20T21:52:53.304Z,6.10
2019-04-20T21:55:21.807Z,5.78
2019-04-20T21:57:55.433Z,5.95
2019-04-20T22:00:44.534Z,5.67
2019-04-20T22:03:14.693Z,5.40
2019-04-20T22:05:50.534Z,5.53
2019-04-20T22:08:20.020Z,5.50
2019-04-20T22:10:53.486Z,5.42
2019-04-20T22:13:29.310Z,5.90
2019-04-20T22:16:05.145Z,5.50
2019-04-20T22:18:31.796Z,7.15
2019-04-20T22:21:11.135Z,6.92
2019-04-20T22:23:53.079Z,5.28
2019-04-20T22:26:20.230Z,5.70
2019-04-20T22:28:38.243Z,5.53
2019-04-20T22:31:11.943Z,4.90
2019-04-20T22:33:44.628Z,4.83
2019-04-20T22:36:14.621Z,4.72
2019-04-20T22:39:05.416Z,5.20
2019-04-20T22:41:44.676Z,4.75
2019-04-20T22:44:15.186Z,5.10
2019-04-20T22:46:46.166Z,4.05
2019-04-20T22:49:36.144Z,4.40
2019-04-20T22:51:58.496Z,3.73
2019-04-20T22:54:37.960Z,4.37
2019-04-20T22:57:03.796Z,4.20
2019-04-20T22:59:37.434Z,4.17
2019-04-20T23:02:00.334Z,4.90
2019-04-20T23:04:33.069Z,5.08
2019-04-20T23:07:05.015Z,4.28
2019-04-20T23:09:43.823Z,4.62
2019-04-20T23:12:10.794Z,3.83
2019-04-20T23:14:38.704Z,5.17
2019-04-20T23:17:10.398Z,4.17
2019-04-20T23:19:47.238Z,4.45
2019-04-20T23:22:13.987Z,4.40
2019-04-20T23:24:44.879Z,5.03
2019-04-20T23:27:18.872Z,4.42
2019-04-20T23:29:49.201Z,4.60
2019-04-20T23:32:19.894Z,4.33
2019-04-20T23:35:00.509Z,4.80
2019-04-20T23:37:30.117Z,4.53
2019-04-20T23:39:56.176Z,4.92
2019-04-20T23:42:49.542Z,4.90
2019-04-20T23:45:35.598Z,4.40
2019-04-20T23:48:05.353Z,4.87
2019-04-20T23:50:50.691Z,4.47
2019-04-20T23:53:25.724Z,4.83
2019-04-20T23:55:41.481Z,5.15
2019-04-20T23:58:14.117Z,4.53
